Time;durP1;ratioP1;P1;durP2;ratioP2;P2;SDS_P1;SDS_P2;PMS_P1;PMS_P2;Temp;Humidity;BMP_temperature;BMP_pressure;BME280_temperature;BME280_humidity;BME280_pressure;Samples;Min_cycle;Max_cycle;Signal;HPM_P1;HPM_P2
2023/04/13 00:02:09;;;;;;;2.13;1.43;;;;;;;;;;5036626;28;20183;-72
2023/04/13 00:04:35;;;;;;;2.70;1.23;;;;;;;;;;5038403;28;20182;-72
2023/04/13 00:07:02;;;;;;;2.30;1.30;;;;;;;;;;5037080;28;20256;-72
2023/04/13 00:09:31;;;;;;;1.80;1.30;;;;;;;;;;5035971;28;20198;-72
2023/04/13 00:11:58;;;;;;;2.13;1.30;;;;;;;;;;5038001;28;20201;-72
2023/04/13 00:14:26;;;;;;;2.13;1.40;;;;;;;;;;5037165;28;20232;-72
2023/04/13 00:16:53;;;;;;;3.13;1.30;;;;;;;;;;5036741;28;20196;-72
2023/04/13 00:19:19;;;;;;;2.40;1.40;;;;;;;;;;5034527;28;20189;-72
2023/04/13 00:21:46;;;;;;;2.20;1.60;;;;;;;;;;5037356;28;20672;-72
2023/04/13 00:24:12;;;;;;;3.27;1.57;;;;;;;;;;5032673;28;20229;-72
2023/04/13 00:26:38;;;;;;;5.03;2.00;;;;;;;;;;5035447;28;20249;-72
2023/04/13 00:29:05;;;;;;;2.80;1.63;;;;;;;;;;5036867;28;20301;-72
2023/04/13 00:31:32;;;;;;;3.10;1.67;;;;;;;;;;5034022;28;20202;-72
2023/04/13 00:34:00;;;;;;;2.43;1.60;;;;;;;;;;5030492;28;20179;-72
2023/04/13 00:36:27;;;;;;;2.73;1.70;;;;;;;;;;5036261;28;20225;-71
2023/04/13 00:38:56;;;;;;;2.50;1.63;;;;;;;;;;5034414;28;20193;-72
2023/04/13 00:41:25;;;;;;;1.90;1.33;;;;;;;;;;5033093;28;20190;-72
2023/04/13 00:43:52;;;;;;;2.13;1.33;;;;;;;;;;5037810;28;20187;-72
2023/04/13 00:46:23;;;;;;;2.07;1.70;;;;;;;;;;5037056;28;20198;-72
2023/04/13 00:48:49;;;;;;;3.83;1.93;;;;;;;;;;5040924;28;20656;-72
2023/04/13 00:51:16;;;;;;;3.33;1.60;;;;;;;;;;5040465;28;20249;-72
2023/04/13 00:53:42;;;;;;;5.63;1.50;;;;;;;;;;5043534;28;20236;-72
2023/04/13 00:56:09;;;;;;;2.03;1.37;;;;;;;;;;5038411;28;20212;-72
2023/04/13 00:58:37;;;;;;;1.80;1.20;;;;;;;;;;5051082;28;20206;-72
2023/04/13 01:01:03;;;;;;;3.00;1.90;;;;;;;;;;5053458;28;20170;-72
2023/04/13 01:03:29;;;;;;;3.73;1.23;;;;;;;;;;5053192;28;20189;-72
2023/04/13 01:06:23;;;;;;;1.80;1.10;;;;;;;;;;5052163;28;20554;-72
2023/04/13 01:08:53;;;;;;;1.60;1.10;;;;;;;;;;5052601;28;20809;-72
2023/04/13 01:11:25;;;;;;;1.87;1.10;;;;;;;;;;5052207;28;20572;-72
2023/04/13 01:14:00;;;;;;;1.50;1.10;;;;;;;;;;5046405;28;20184;-72
2023/04/13 01:16:30;;;;;;;2.47;1.10;;;;;;;;;;5043303;28;20193;-72
2023/04/13 01:18:57;;;;;;;1.80;1.10;;;;;;;;;;5037878;28;20217;-71
2023/04/13 01:21:26;;;;;;;1.67;1.30;;;;;;;;;;5032219;28;20812;-72
2023/04/13 01:24:16;;;;;;;2.97;1.10;;;;;;;;;;5022414;28;20187;-72
2023/04/13 01:27:07;;;;;;;3.87;1.00;;;;;;;;;;5040047;28;20217;-72
2023/04/13 01:29:34;;;;;;;1.83;0.90;;;;;;;;;;5039629;28;20205;-72
2023/04/13 01:32:00;;;;;;;2.00;1.00;;;;;;;;;;5035408;28;20237;-72
2023/04/13 01:34:27;;;;;;;3.10;1.10;;;;;;;;;;5039672;28;20726;-72
2023/04/13 01:36:54;;;;;;;1.83;1.00;;;;;;;;;;5039816;28;20211;-72
2023/04/13 01:39:20;;;;;;;2.37;1.00;;;;;;;;;;5040495;28;20525;-72
2023/04/13 01:41:50;;;;;;;1.93;1.00;;;;;;;;;;5038268;28;20224;-72
2023/04/13 01:44:16;;;;;;;1.50;0.90;;;;;;;;;;5037773;28;20190;-72
2023/04/13 01:46:48;;;;;;;2.73;1.10;;;;;;;;;;5038558;28;20206;-72
2023/04/13 01:49:34;;;;;;;1.53;1.10;;;;;;;;;;5041413;28;20236;-72
2023/04/13 01:52:13;;;;;;;2.73;1.23;;;;;;;;;;5038503;28;20197;-72
2023/04/13 01:54:40;;;;;;;2.00;1.03;;;;;;;;;;5036496;28;20185;-72
2023/04/13 01:57:07;;;;;;;1.90;1.10;;;;;;;;;;5038101;28;20285;-72
2023/04/13 01:59:34;;;;;;;1.93;1.00;;;;;;;;;;5037871;28;20177;-72
2023/04/13 02:02:01;;;;;;;4.10;1.10;;;;;;;;;;5036229;28;20198;-73
2023/04/13 02:04:28;;;;;;;2.33;1.17;;;;;;;;;;5037701;28;20193;-72
2023/04/13 02:06:54;;;;;;;2.57;1.07;;;;;;;;;;5035645;28;20228;-72
2023/04/13 02:09:27;;;;;;;2.63;1.00;;;;;;;;;;5037301;28;20849;-72
2023/04/13 02:11:54;;;;;;;3.10;1.10;;;;;;;;;;5037515;28;20186;-72
2023/04/13 02:14:20;;;;;;;2.97;1.20;;;;;;;;;;5021395;28;20258;-72
2023/04/13 02:16:47;;;;;;;2.77;1.10;;;;;;;;;;5035727;28;20615;-72
2023/04/13 02:19:14;;;;;;;3.00;1.07;;;;;;;;;;5036584;28;20280;-72
2023/04/13 02:21:40;;;;;;;3.87;1.27;;;;;;;;;;5036084;28;20182;-72
2023/04/13 02:24:10;;;;;;;1.77;1.03;;;;;;;;;;5045585;28;20189;-72
2023/04/13 02:26:38;;;;;;;1.97;1.00;;;;;;;;;;5046550;28;20198;-72
2023/04/13 02:29:04;;;;;;;2.87;1.00;;;;;;;;;;5031820;28;20202;-72
2023/04/13 02:31:31;;;;;;;1.90;1.00;;;;;;;;;;5041180;28;20277;-72
2023/04/13 02:33:57;;;;;;;1.80;1.10;;;;;;;;;;5033277;28;20550;-72
2023/04/13 02:36:23;;;;;;;2.23;1.00;;;;;;;;;;5050351;28;20197;-72
2023/04/13 02:38:56;;;;;;;1.63;0.90;;;;;;;;;;5038390;28;20190;-72
2023/04/13 02:41:27;;;;;;;2.57;1.00;;;;;;;;;;5031904;28;20286;-72
2023/04/13 02:43:53;;;;;;;5.30;1.00;;;;;;;;;;5031224;28;20198;-72
2023/04/13 02:46:22;;;;;;;2.90;1.10;;;;;;;;;;5030330;28;20248;-72
2023/04/13 02:48:52;;;;;;;2.83;1.00;;;;;;;;;;5041440;28;20573;-72
2023/04/13 02:51:19;;;;;;;3.70;1.23;;;;;;;;;;5050363;28;20641;-72
2023/04/13 02:53:45;;;;;;;2.03;0.90;;;;;;;;;;5049835;28;20675;-72
2023/04/13 02:56:13;;;;;;;2.80;1.07;;;;;;;;;;5033787;28;20186;-72
2023/04/13 02:58:40;;;;;;;4.30;1.30;;;;;;;;;;5049946;28;20184;-72
2023/04/13 03:01:12;;;;;;;3.47;1.47;;;;;;;;;;5044920;28;20182;-72
2023/04/13 03:03:40;;;;;;;2.80;0.97;;;;;;;;;;5046729;28;20186;-72
2023/04/13 03:06:07;;;;;;;3.03;0.97;;;;;;;;;;5049432;28;20324;-72
2023/04/13 03:08:50;;;;;;;2.77;1.20;;;;;;;;;;5049682;28;20213;-72
2023/04/13 03:11:22;;;;;;;4.63;1.10;;;;;;;;;;5017194;28;20185;-72
2023/04/13 03:14:06;;;;;;;3.07;1.17;;;;;;;;;;5049440;28;20173;-72
2023/04/13 03:16:33;;;;;;;3.90;1.13;;;;;;;;;;5033587;28;20198;-72
2023/04/13 03:18:59;;;;;;;3.07;1.40;;;;;;;;;;5049658;28;20212;-72
2023/04/13 03:21:26;;;;;;;3.37;1.10;;;;;;;;;;5049865;28;20178;-72
2023/04/13 03:24:03;;;;;;;3.40;1.20;;;;;;;;;;5049251;28;20178;-72
2023/04/13 03:26:30;;;;;;;3.97;1.10;;;;;;;;;;5049751;28;20205;-72
2023/04/13 03:29:00;;;;;;;2.00;1.10;;;;;;;;;;5049412;28;20569;-72
2023/04/13 03:31:28;;;;;;;3.43;1.10;;;;;;;;;;5049858;28;20653;-72
2023/04/13 03:33:56;;;;;;;3.07;1.00;;;;;;;;;;5049184;28;20174;-72
2023/04/13 03:36:23;;;;;;;2.47;1.03;;;;;;;;;;5033152;28;20206;-72
2023/04/13 03:38:49;;;;;;;3.50;1.37;;;;;;;;;;5049393;28;20639;-72
2023/04/13 03:41:17;;;;;;;2.90;1.30;;;;;;;;;;5033109;28;20197;-72
2023/04/13 03:43:46;;;;;;;1.57;1.00;;;;;;;;;;5049253;28;20196;-72
2023/04/13 03:46:12;;;;;;;3.20;1.30;;;;;;;;;;5049362;28;20328;-72
2023/04/13 03:48:42;;;;;;;5.03;1.40;;;;;;;;;;5049238;28;20212;-72
2023/04/13 03:51:11;;;;;;;7.13;1.50;;;;;;;;;;5049753;28;20604;-72
2023/04/13 03:53:47;;;;;;;3.67;1.10;;;;;;;;;;5049267;28;20204;-72
2023/04/13 03:56:15;;;;;;;4.20;1.20;;;;;;;;;;5049336;28;20276;-72
2023/04/13 03:58:41;;;;;;;8.73;1.07;;;;;;;;;;5049270;28;20265;-72
2023/04/13 04:01:09;;;;;;;3.67;1.20;;;;;;;;;;5049383;28;20601;-72
2023/04/13 04:03:42;;;;;;;4.07;1.33;;;;;;;;;;5049284;28;20189;-72
2023/04/13 04:06:09;;;;;;;2.63;1.27;;;;;;;;;;5049128;28;20640;-72
2023/04/13 04:08:37;;;;;;;2.50;1.00;;;;;;;;;;5049063;28;20762;-72
2023/04/13 04:11:08;;;;;;;10.73;3.67;;;;;;;;;;5049194;28;20264;-72
2023/04/13 04:13:34;;;;;;;3.80;1.37;;;;;;;;;;5049054;28;20186;-72
2023/04/13 04:16:07;;;;;;;4.27;1.93;;;;;;;;;;5049098;28;20186;-72
2023/04/13 04:18:36;;;;;;;3.50;1.30;;;;;;;;;;5052950;28;20181;-72
2023/04/13 04:21:02;;;;;;;5.33;1.60;;;;;;;;;;5053057;28;20272;-72
2023/04/13 04:23:29;;;;;;;5.63;1.80;;;;;;;;;;5052883;28;20182;-72
2023/04/13 04:26:02;;;;;;;4.20;1.60;;;;;;;;;;5052841;28;20259;-72
2023/04/13 04:28:38;;;;;;;5.83;1.50;;;;;;;;;;5052894;28;20224;-72
2023/04/13 04:31:11;;;;;;;4.13;1.27;;;;;;;;;;5052914;28;20547;-72
2023/04/13 04:33:39;;;;;;;3.97;1.50;;;;;;;;;;5052671;28;20186;-72
2023/04/13 04:36:09;;;;;;;4.63;1.60;;;;;;;;;;5052736;28;20216;-72
2023/04/13 04:38:38;;;;;;;5.47;1.63;;;;;;;;;;5052651;28;20251;-72
2023/04/13 04:41:07;;;;;;;5.27;1.50;;;;;;;;;;5052542;28;20186;-72
2023/04/13 04:43:34;;;;;;;5.83;1.70;;;;;;;;;;5052380;28;20689;-72
2023/04/13 04:46:03;;;;;;;4.47;2.00;;;;;;;;;;5052473;28;20182;-72
2023/04/13 04:48:31;;;;;;;4.67;1.70;;;;;;;;;;5052583;28;20206;-72
2023/04/13 04:50:58;;;;;;;3.70;1.60;;;;;;;;;;5052467;28;20224;-72
2023/04/13 04:53:29;;;;;;;5.33;1.57;;;;;;;;;;5052325;28;20521;-72
2023/04/13 04:55:56;;;;;;;4.60;1.47;;;;;;;;;;5052309;28;20174;-72
2023/04/13 04:58:35;;;;;;;5.40;1.50;;;;;;;;;;5052490;28;20264;-72
2023/04/13 05:01:02;;;;;;;5.50;1.57;;;;;;;;;;5052219;28;20186;-72
2023/04/13 05:03:29;;;;;;;5.90;1.90;;;;;;;;;;5035499;28;20649;-72
2023/04/13 05:06:06;;;;;;;9.17;2.40;;;;;;;;;;5036834;28;20196;-72
2023/04/13 05:08:33;;;;;;;4.80;1.70;;;;;;;;;;5035841;28;20213;-72
2023/04/13 05:11:00;;;;;;;7.00;1.97;;;;;;;;;;5053365;28;20261;-72
2023/04/13 05:13:26;;;;;;;6.17;1.90;;;;;;;;;;5051967;28;20253;-72
2023/04/13 05:16:07;;;;;;;4.80;2.00;;;;;;;;;;5051943;28;20192;-72
2023/04/13 05:18:42;;;;;;;4.93;2.00;;;;;;;;;;5052218;28;20181;-72
2023/04/13 05:21:09;;;;;;;4.63;1.97;;;;;;;;;;5053394;28;20185;-72
2023/04/13 05:23:35;;;;;;;6.13;2.20;;;;;;;;;;5051584;28;20181;-72
2023/04/13 05:26:10;;;;;;;6.50;2.17;;;;;;;;;;5050770;28;20227;-72
2023/04/13 05:28:36;;;;;;;6.53;1.83;;;;;;;;;;5030175;28;20579;-72
2023/04/13 05:31:03;;;;;;;4.67;2.37;;;;;;;;;;5032786;28;20225;-72
2023/04/13 05:33:31;;;;;;;6.40;2.13;;;;;;;;;;5043815;28;20258;-72
2023/04/13 05:35:57;;;;;;;7.33;1.90;;;;;;;;;;5032411;28;20260;-72
2023/04/13 05:38:24;;;;;;;10.93;2.20;;;;;;;;;;5037588;28;20523;-72
2023/04/13 05:40:52;;;;;;;5.90;2.00;;;;;;;;;;5056134;28;20572;-72
2023/04/13 05:43:19;;;;;;;4.53;1.80;;;;;;;;;;5040216;28;20213;-72
2023/04/13 05:45:49;;;;;;;7.10;2.37;;;;;;;;;;5031418;28;20554;-72
2023/04/13 05:48:15;;;;;;;6.83;1.73;;;;;;;;;;5030668;28;20256;-72
2023/04/13 05:50:43;;;;;;;8.70;2.00;;;;;;;;;;5017775;28;20209;-72
2023/04/13 05:53:10;;;;;;;5.90;1.70;;;;;;;;;;5030430;28;20188;-72
2023/04/13 05:55:45;;;;;;;6.03;1.90;;;;;;;;;;5035138;28;20190;-72
2023/04/13 05:58:11;;;;;;;3.77;1.60;;;;;;;;;;5032178;28;20673;-72
2023/04/13 06:00:37;;;;;;;7.83;2.53;;;;;;;;;;5033347;28;20241;-72
2023/04/13 06:03:08;;;;;;;6.60;1.70;;;;;;;;;;5020110;28;20244;-72
2023/04/13 06:05:35;;;;;;;6.30;1.70;;;;;;;;;;5037438;28;20188;-72
2023/04/13 06:08:02;;;;;;;5.70;1.67;;;;;;;;;;5032605;28;20360;-72
2023/04/13 06:10:28;;;;;;;5.40;1.67;;;;;;;;;;5030647;28;20357;-75
2023/04/13 06:12:54;;;;;;;10.30;1.50;;;;;;;;;;5032294;28;20333;-75
2023/04/13 06:15:20;;;;;;;5.03;2.37;;;;;;;;;;5032811;28;20550;-78
2023/04/13 06:17:50;;;;;;;6.93;2.13;;;;;;;;;;5030668;28;20199;-76
2023/04/13 06:20:16;;;;;;;6.80;2.00;;;;;;;;;;5029972;28;20187;-75
2023/04/13 06:22:42;;;;;;;6.43;1.80;;;;;;;;;;5046487;28;20178;-74
2023/04/13 06:25:10;;;;;;;4.50;1.50;;;;;;;;;;5030763;28;20202;-74
2023/04/13 06:27:37;;;;;;;7.27;2.03;;;;;;;;;;5014020;28;20280;-74
2023/04/13 06:30:07;;;;;;;6.23;1.77;;;;;;;;;;5040374;28;20209;-75
2023/04/13 06:32:34;;;;;;;9.63;1.77;;;;;;;;;;5031411;28;20170;-74
2023/04/13 06:35:02;;;;;;;7.53;1.87;;;;;;;;;;5030741;28;20244;-74
2023/04/13 06:37:34;;;;;;;5.73;1.90;;;;;;;;;;4996441;28;20202;-74
2023/04/13 06:40:13;;;;;;;7.13;1.73;;;;;;;;;;5007015;28;20265;-74
2023/04/13 06:42:46;;;;;;;5.63;1.70;;;;;;;;;;5010386;28;20207;-74
2023/04/13 06:45:32;;;;;;;5.03;1.60;;;;;;;;;;5027594;28;20190;-75
2023/04/13 06:48:00;;;;;;;5.13;1.70;;;;;;;;;;5042661;28;20678;-75
2023/04/13 06:50:29;;;;;;;6.20;1.70;;;;;;;;;;5029195;28;20193;-74
2023/04/13 06:52:59;;;;;;;5.57;1.73;;;;;;;;;;5022709;28;20193;-74
2023/04/13 06:55:25;;;;;;;8.80;2.30;;;;;;;;;;5027801;28;20229;-74
2023/04/13 06:57:51;;;;;;;9.80;2.00;;;;;;;;;;5044346;28;20205;-74
2023/04/13 07:00:17;;;;;;;6.63;2.17;;;;;;;;;;5029523;28;20460;-75
2023/04/13 07:02:44;;;;;;;9.67;2.20;;;;;;;;;;5028963;28;20197;-75
2023/04/13 07:05:11;;;;;;;7.43;2.23;;;;;;;;;;5028859;28;20178;-74
2023/04/13 07:07:38;;;;;;;9.03;2.57;;;;;;;;;;5027456;28;20241;-74
2023/04/13 07:10:05;;;;;;;7.43;1.90;;;;;;;;;;5027248;28;20680;-74
2023/04/13 07:12:33;;;;;;;6.83;1.87;;;;;;;;;;5027761;28;20704;-75
2023/04/13 07:15:00;;;;;;;7.93;1.80;;;;;;;;;;5028444;28;20654;-75
2023/04/13 07:17:28;;;;;;;9.27;2.23;;;;;;;;;;5027892;28;20201;-74
2023/04/13 07:19:54;;;;;;;6.70;2.03;;;;;;;;;;5029140;28;20284;-74
2023/04/13 07:22:21;;;;;;;6.47;2.00;;;;;;;;;;5011121;28;20190;-75
2023/04/13 07:24:48;;;;;;;8.40;2.33;;;;;;;;;;5026772;28;20233;-75
2023/04/13 07:27:18;;;;;;;7.80;2.03;;;;;;;;;;5032809;28;20290;-74
2023/04/13 07:29:44;;;;;;;8.40;1.97;;;;;;;;;;5027861;28;20206;-74
2023/04/13 07:32:15;;;;;;;5.53;2.00;;;;;;;;;;5027933;28;20171;-75
2023/04/13 07:34:44;;;;;;;8.93;2.13;;;;;;;;;;5027846;28;20186;-76
2023/04/13 07:37:10;;;;;;;5.37;2.30;;;;;;;;;;5028185;28;20217;-76
2023/04/13 07:39:36;;;;;;;8.70;2.40;;;;;;;;;;5027805;28;20183;-76
2023/04/13 07:42:03;;;;;;;7.90;2.30;;;;;;;;;;5010475;28;20212;-76
2023/04/13 07:44:38;;;;;;;10.10;2.30;;;;;;;;;;5010946;28;20640;-76
2023/04/13 07:47:05;;;;;;;6.83;2.20;;;;;;;;;;5028832;28;20252;-76
2023/04/13 07:49:32;;;;;;;6.23;1.93;;;;;;;;;;5029091;28;20218;-75
2023/04/13 07:51:59;;;;;;;6.80;1.97;;;;;;;;;;5029316;28;20566;-75
2023/04/13 07:54:27;;;;;;;5.73;1.80;;;;;;;;;;5031625;28;20170;-76
2023/04/13 07:56:55;;;;;;;7.57;2.23;;;;;;;;;;5031948;28;20206;-75
2023/04/13 07:59:24;;;;;;;8.00;2.30;;;;;;;;;;5020692;28;20229;-75
2023/04/13 08:01:51;;;;;;;7.97;2.23;;;;;;;;;;5028052;28;20555;-75
2023/04/13 08:04:18;;;;;;;8.60;2.40;;;;;;;;;;5026892;28;20804;-74
2023/04/13 08:06:45;;;;;;;8.23;2.10;;;;;;;;;;5012064;28;20254;-74
2023/04/13 08:09:11;;;;;;;9.67;2.50;;;;;;;;;;5011697;28;20207;-74
2023/04/13 08:11:37;;;;;;;7.83;2.17;;;;;;;;;;5012457;28;20526;-74
2023/04/13 08:14:08;;;;;;;7.57;2.53;;;;;;;;;;5011722;28;20187;-74
2023/04/13 08:16:35;;;;;;;9.07;2.17;;;;;;;;;;5011074;28;20225;-74
2023/04/13 08:19:05;;;;;;;10.27;2.47;;;;;;;;;;5011035;28;20326;-74
2023/04/13 08:21:37;;;;;;;9.40;2.27;;;;;;;;;;5044065;28;20197;-74
2023/04/13 08:24:03;;;;;;;5.77;2.13;;;;;;;;;;5044761;28;20183;-74
2023/04/13 08:26:30;;;;;;;7.07;2.23;;;;;;;;;;5042575;28;20234;-74
2023/04/13 08:28:59;;;;;;;12.27;2.40;;;;;;;;;;4995010;28;20649;-74
2023/04/13 08:31:25;;;;;;;7.60;2.10;;;;;;;;;;5044554;28;20175;-74
2023/04/13 08:33:56;;;;;;;5.90;1.90;;;;;;;;;;5011085;28;20180;-73
2023/04/13 08:36:23;;;;;;;10.53;2.10;;;;;;;;;;4993785;28;20257;-74
2023/04/13 08:38:55;;;;;;;10.00;2.50;;;;;;;;;;5010767;28;20252;-78
2023/04/13 08:41:22;;;;;;;6.10;2.00;;;;;;;;;;5013712;28;20191;-80
2023/04/13 08:43:51;;;;;;;6.80;2.33;;;;;;;;;;5013926;28;20184;-81
2023/04/13 08:46:20;;;;;;;9.83;2.70;;;;;;;;;;4981368;28;20210;-81
2023/04/13 08:48:51;;;;;;;7.37;2.20;;;;;;;;;;4979912;28;20250;-83
2023/04/13 08:51:19;;;;;;;8.47;2.30;;;;;;;;;;5010659;28;20179;-81
2023/04/13 08:53:46;;;;;;;8.67;2.00;;;;;;;;;;5010017;28;20194;-77
2023/04/13 08:56:19;;;;;;;8.20;2.33;;;;;;;;;;4990362;28;20618;-77
2023/04/13 08:58:46;;;;;;;8.40;1.97;;;;;;;;;;5006288;28;20191;-78
2023/04/13 09:01:12;;;;;;;6.77;2.17;;;;;;;;;;5010159;28;20179;-82
2023/04/13 09:03:58;;;;;;;6.37;1.93;;;;;;;;;;5011836;28;20299;-77
2023/04/13 09:06:26;;;;;;;8.37;2.17;;;;;;;;;;5012407;28;20217;-77
2023/04/13 09:08:54;;;;;;;7.07;2.30;;;;;;;;;;5012277;28;20881;-77
2023/04/13 09:11:21;;;;;;;5.60;1.90;;;;;;;;;;5010127;28;20269;-77
2023/04/13 09:13:49;;;;;;;7.00;2.07;;;;;;;;;;5015286;28;20643;-77
2023/04/13 09:16:15;;;;;;;7.20;1.97;;;;;;;;;;5013641;28;20186;-77
2023/04/13 09:18:52;;;;;;;4.70;1.67;;;;;;;;;;5046106;28;20273;-77
2023/04/13 09:21:18;;;;;;;6.77;2.17;;;;;;;;;;5012774;28;20186;-77
2023/04/13 09:23:58;;;;;;;5.50;1.80;;;;;;;;;;5013719;28;20186;-77
2023/04/13 09:26:24;;;;;;;9.40;1.87;;;;;;;;;;5014252;28;20207;-77
2023/04/13 09:28:51;;;;;;;5.80;1.90;;;;;;;;;;5029320;28;21626;-77
2023/04/13 09:31:18;;;;;;;7.53;2.20;;;;;;;;;;5013040;28;20674;-77
2023/04/13 09:33:45;;;;;;;9.87;2.43;;;;;;;;;;5046211;28;20179;-77
2023/04/13 09:36:13;;;;;;;6.97;1.70;;;;;;;;;;5013934;28;20317;-76
2023/04/13 09:38:39;;;;;;;5.87;1.73;;;;;;;;;;5029107;28;20207;-77
2023/04/13 09:41:07;;;;;;;5.20;1.67;;;;;;;;;;5013674;28;20194;-77
2023/04/13 09:43:37;;;;;;;6.30;1.90;;;;;;;;;;5013844;28;20219;-77
2023/04/13 09:46:04;;;;;;;7.67;2.00;;;;;;;;;;5012918;28;20639;-77
2023/04/13 09:48:30;;;;;;;6.17;1.93;;;;;;;;;;5012639;28;20199;-77
2023/04/13 09:51:05;;;;;;;7.70;1.70;;;;;;;;;;5013868;28;20650;-77
2023/04/13 09:53:48;;;;;;;9.57;1.97;;;;;;;;;;5013472;28;20179;-77
2023/04/13 09:56:15;;;;;;;6.60;2.00;;;;;;;;;;5013549;28;20174;-77
2023/04/13 09:58:43;;;;;;;6.23;1.90;;;;;;;;;;5018239;28;20233;-77
2023/04/13 10:01:10;;;;;;;5.83;1.97;;;;;;;;;;5017778;28;20186;-77
2023/04/13 10:03:36;;;;;;;5.27;2.00;;;;;;;;;;5013010;28;20187;-77
2023/04/13 10:06:06;;;;;;;5.03;2.23;;;;;;;;;;5014198;28;20222;-77
2023/04/13 10:08:33;;;;;;;6.07;1.80;;;;;;;;;;5002608;28;20207;-76
2023/04/13 10:11:03;;;;;;;3.80;1.50;;;;;;;;;;5011979;28;20191;-76
2023/04/13 10:13:35;;;;;;;4.30;1.37;;;;;;;;;;5012335;28;20187;-76
2023/04/13 10:16:20;;;;;;;5.20;1.37;;;;;;;;;;5011386;28;20201;-76
2023/04/13 10:18:51;;;;;;;5.23;1.50;;;;;;;;;;5011506;28;20191;-77
2023/04/13 10:21:18;;;;;;;3.73;1.33;;;;;;;;;;5007307;28;20210;-76
2023/04/13 10:23:44;;;;;;;5.13;1.43;;;;;;;;;;5038401;28;20237;-76
2023/04/13 10:26:10;;;;;;;4.97;1.10;;;;;;;;;;5009086;28;20202;-76
2023/04/13 10:28:41;;;;;;;4.17;1.33;;;;;;;;;;5013313;28;20694;-76
2023/04/13 10:31:07;;;;;;;3.60;1.30;;;;;;;;;;4997125;28;20184;-78
2023/04/13 10:33:34;;;;;;;2.87;1.30;;;;;;;;;;5007989;28;20184;-78
2023/04/13 10:36:01;;;;;;;1.70;1.13;;;;;;;;;;5000198;28;20570;-77
2023/04/13 10:38:27;;;;;;;2.20;1.10;;;;;;;;;;5010465;28;20187;-78
2023/04/13 10:40:53;;;;;;;3.47;1.40;;;;;;;;;;5011925;28;20206;-78
2023/04/13 10:43:26;;;;;;;4.20;1.40;;;;;;;;;;5008878;28;20643;-77
2023/04/13 10:46:09;;;;;;;2.60;1.50;;;;;;;;;;5010473;28;20187;-77
2023/04/13 10:48:36;;;;;;;2.33;1.17;;;;;;;;;;5010255;28;20245;-77
2023/04/13 10:51:02;;;;;;;2.17;1.30;;;;;;;;;;5010444;28;20194;-77
2023/04/13 10:53:33;;;;;;;3.10;1.00;;;;;;;;;;5007973;28;20651;-77
2023/04/13 10:56:00;;;;;;;2.00;1.10;;;;;;;;;;5010126;28;20626;-78
2023/04/13 10:58:28;;;;;;;3.20;1.30;;;;;;;;;;5010949;28;20175;-78
2023/04/13 11:00:54;;;;;;;2.73;1.30;;;;;;;;;;5009292;28;20298;-77
2023/04/13 11:03:21;;;;;;;4.13;1.47;;;;;;;;;;5008414;28;20183;-77
2023/04/13 11:05:48;;;;;;;2.30;1.20;;;;;;;;;;5009764;28;20706;-77
2023/04/13 11:08:19;;;;;;;3.57;1.43;;;;;;;;;;5010546;28;20219;-77
2023/04/13 11:10:52;;;;;;;3.47;1.30;;;;;;;;;;4992467;28;20325;-77
2023/04/13 11:13:18;;;;;;;4.73;1.80;;;;;;;;;;5008213;28;20187;-78
2023/04/13 11:15:45;;;;;;;3.67;1.43;;;;;;;;;;5010762;28;20175;-77
2023/04/13 11:18:11;;;;;;;2.73;1.40;;;;;;;;;;5010710;28;20234;-77
2023/04/13 11:20:39;;;;;;;3.73;1.97;;;;;;;;;;5010867;28;20750;-77
2023/04/13 11:23:06;;;;;;;5.00;1.70;;;;;;;;;;5006885;28;20183;-76
2023/04/13 11:25:33;;;;;;;3.67;1.40;;;;;;;;;;4991944;28;20191;-77
2023/04/13 11:28:00;;;;;;;4.17;1.43;;;;;;;;;;5011119;28;20546;-76
2023/04/13 11:30:27;;;;;;;5.57;2.57;;;;;;;;;;5007076;28;20183;-77
2023/04/13 11:32:53;;;;;;;4.30;2.30;;;;;;;;;;5006491;28;20183;-76
2023/04/13 11:35:22;;;;;;;3.77;2.67;;;;;;;;;;5011699;28;20183;-76
2023/04/13 11:37:52;;;;;;;4.00;2.23;;;;;;;;;;5011108;28;20206;-77
2023/04/13 11:40:26;;;;;;;3.67;1.90;;;;;;;;;;5011987;28;20183;-77
2023/04/13 11:42:52;;;;;;;4.27;1.40;;;;;;;;;;5012005;28;20179;-77
2023/04/13 11:45:19;;;;;;;5.17;1.50;;;;;;;;;;5011922;28;20198;-76
2023/04/13 11:47:46;;;;;;;2.83;1.50;;;;;;;;;;5018838;28;20202;-77
2023/04/13 11:50:13;;;;;;;3.67;1.60;;;;;;;;;;5032231;28;20189;-77
2023/04/13 11:52:40;;;;;;;4.13;1.70;;;;;;;;;;5063763;28;20219;-77
2023/04/13 11:55:07;;;;;;;4.20;1.60;;;;;;;;;;5032276;28;20240;-76
2023/04/13 11:57:33;;;;;;;3.63;1.90;;;;;;;;;;5030469;28;20207;-77
2023/04/13 12:00:00;;;;;;;3.80;1.80;;;;;;;;;;5030499;28;20198;-77
2023/04/13 12:02:30;;;;;;;4.17;1.70;;;;;;;;;;5026961;28;20329;-77
2023/04/13 12:04:57;;;;;;;4.73;1.70;;;;;;;;;;5011897;28;20190;-77
2023/04/13 12:07:23;;;;;;;3.33;1.63;;;;;;;;;;5013564;28;20263;-76
2023/04/13 12:09:50;;;;;;;3.63;1.77;;;;;;;;;;5031118;28;20225;-77
2023/04/13 12:12:23;;;;;;;4.70;1.87;;;;;;;;;;5030905;28;20217;-77
2023/04/13 12:14:56;;;;;;;4.33;1.70;;;;;;;;;;5031737;28;20252;-76
2023/04/13 12:17:29;;;;;;;3.47;1.50;;;;;;;;;;5031431;28;20252;-77
2023/04/13 12:19:55;;;;;;;12.90;8.30;;;;;;;;;;5031298;28;20178;-76
2023/04/13 12:22:22;;;;;;;5.87;3.23;;;;;;;;;;5028266;28;20175;-77
2023/04/13 12:24:48;;;;;;;5.83;3.13;;;;;;;;;;5009849;28;20323;-77
2023/04/13 12:27:16;;;;;;;2.67;1.53;;;;;;;;;;4995028;28;20253;-77
2023/04/13 12:29:42;;;;;;;2.50;1.70;;;;;;;;;;5062933;28;20233;-77
2023/04/13 12:32:10;;;;;;;3.90;1.90;;;;;;;;;;5029744;28;20179;-77
2023/04/13 12:34:36;;;;;;;8.97;5.43;;;;;;;;;;5013758;28;20282;-77
2023/04/13 12:37:04;;;;;;;3.07;1.67;;;;;;;;;;5032059;28;20186;-76
2023/04/13 12:39:30;;;;;;;3.70;1.50;;;;;;;;;;5032571;28;20615;-76
2023/04/13 12:41:56;;;;;;;1.97;1.33;;;;;;;;;;5034589;28;20674;-76
2023/04/13 12:44:22;;;;;;;3.23;1.50;;;;;;;;;;5034357;28;20273;-77
2023/04/13 12:46:49;;;;;;;2.80;1.30;;;;;;;;;;5033484;28;20206;-75
2023/04/13 12:49:15;;;;;;;3.60;1.40;;;;;;;;;;5017485;28;20245;-76
2023/04/13 12:51:41;;;;;;;2.73;1.30;;;;;;;;;;5012854;28;20260;-76
2023/04/13 12:54:12;;;;;;;2.67;1.50;;;;;;;;;;5029143;28;20680;-78
2023/04/13 12:56:40;;;;;;;4.53;1.40;;;;;;;;;;5037236;28;20292;-78
2023/04/13 12:59:07;;;;;;;3.77;1.40;;;;;;;;;;5033909;28;20178;-76
2023/04/13 13:01:36;;;;;;;2.40;1.50;;;;;;;;;;5032355;28;20178;-76
2023/04/13 13:04:03;;;;;;;3.80;1.40;;;;;;;;;;5065643;28;20186;-77
2023/04/13 13:06:29;;;;;;;4.33;1.70;;;;;;;;;;5034477;28;20210;-75
2023/04/13 13:08:55;;;;;;;2.60;1.50;;;;;;;;;;5015833;28;20205;-76
2023/04/13 13:11:22;;;;;;;3.57;1.57;;;;;;;;;;5033483;28;20217;-75
2023/04/13 13:13:48;;;;;;;3.33;1.20;;;;;;;;;;5021947;28;20183;-76
2023/04/13 13:16:14;;;;;;;4.73;1.40;;;;;;;;;;5013785;28;20206;-76
2023/04/13 13:18:40;;;;;;;4.20;1.60;;;;;;;;;;5023523;28;20230;-76
2023/04/13 13:21:06;;;;;;;4.10;1.50;;;;;;;;;;5033454;28;20701;-76
2023/04/13 13:23:32;;;;;;;5.13;1.87;;;;;;;;;;5024630;28;20677;-76
2023/04/13 13:25:58;;;;;;;3.00;1.80;;;;;;;;;;4996108;28;20212;-75
2023/04/13 13:28:24;;;;;;;4.17;1.63;;;;;;;;;;5020565;28;20230;-75
2023/04/13 13:30:50;;;;;;;2.50;1.40;;;;;;;;;;5048703;28;20546;-75
2023/04/13 13:33:18;;;;;;;2.70;1.37;;;;;;;;;;5027602;28;20198;-77
2023/04/13 13:35:44;;;;;;;2.40;1.27;;;;;;;;;;5013838;28;20171;-75
2023/04/13 13:38:10;;;;;;;1.80;1.23;;;;;;;;;;5014518;28;20377;-77
2023/04/13 13:40:36;;;;;;;3.07;1.30;;;;;;;;;;4997767;28;20217;-77
2023/04/13 13:43:03;;;;;;;1.90;1.23;;;;;;;;;;5002130;28;20218;-77
2023/04/13 13:45:29;;;;;;;3.00;1.00;;;;;;;;;;5017536;28;20205;-77
2023/04/13 13:47:57;;;;;;;1.50;1.03;;;;;;;;;;5014559;28;20205;-77
2023/04/13 13:50:40;;;;;;;2.77;1.20;;;;;;;;;;4997225;28;20246;-77
2023/04/13 13:53:07;;;;;;;5.40;2.10;;;;;;;;;;4984064;28;20185;-77
2023/04/13 13:55:38;;;;;;;4.40;2.50;;;;;;;;;;5066178;28;20559;-77
2023/04/13 13:58:04;;;;;;;7.13;3.13;;;;;;;;;;5033476;28;20268;-77
2023/04/13 14:00:31;;;;;;;13.00;5.80;;;;;;;;;;5033655;28;20171;-77
2023/04/13 14:02:57;;;;;;;4.67;1.90;;;;;;;;;;5031709;28;20170;-75
2023/04/13 14:05:23;;;;;;;3.03;1.60;;;;;;;;;;5011642;28;20186;-75
2023/04/13 14:07:50;;;;;;;1.97;1.37;;;;;;;;;;5012670;28;20211;-75
2023/04/13 14:10:16;;;;;;;1.90;1.50;;;;;;;;;;5011689;28;20207;-76
2023/04/13 14:12:43;;;;;;;2.93;1.87;;;;;;;;;;5012439;28;20187;-76
2023/04/13 14:15:11;;;;;;;4.30;1.73;;;;;;;;;;5031670;28;20208;-76
2023/04/13 14:17:36;;;;;;;3.40;1.40;;;10.70;99.90;;;;;;5032124;28;20289;-76
2023/04/13 14:20:07;;;;;;;4.63;1.53;;;14.60;75.10;;;;;;5028587;28;20662;-76
2023/04/13 14:22:34;;;;;;;2.27;1.70;;;14.60;76.40;;;;;;5011072;28;20183;-76
2023/04/13 14:25:00;;;;;;;3.43;1.80;;;14.00;78.40;;;;;;5028480;28;20171;-76
2023/04/13 14:27:25;;;;;;;4.63;1.50;;;13.70;79.50;;;;;;5022259;28;20200;-77
2023/04/13 14:29:51;;;;;;;3.00;1.67;;;13.40;81.20;;;;;;5010909;28;20203;-76
2023/04/13 14:32:17;;;;;;;7.70;2.17;;;12.90;87.10;;;;;;5012048;28;20167;-76
2023/04/13 14:34:46;;;;;;;3.77;1.80;;;12.70;86.50;;;;;;5012209;28;20180;-76
2023/04/13 14:37:13;;;;;;;2.90;1.67;;;12.50;91.10;;;;;;5012521;28;20225;-76
2023/04/13 14:39:39;;;;;;;4.23;1.90;;;12.40;92.50;;;;;;5011251;28;20238;-76
2023/04/13 14:42:06;;;;;;;3.87;1.80;;;12.40;94.90;;;;;;5010958;28;20214;-76
2023/04/13 14:44:35;;;;;;;3.13;1.83;;;12.30;95.10;;;;;;5019305;28;20237;-76
2023/04/13 14:47:00;;;;;;;2.40;1.50;;;12.20;99.90;;;;;;5011822;28;20294;-76